createdAt,value
2022-08-17T00:00:34.841Z,99719.59
2022-08-17T00:03:18.429Z,99718.03
2022-08-17T00:06:08.645Z,99718.03
2022-08-17T00:08:57.657Z,99714.28
2022-08-17T00:11:26.483Z,99715.75
2022-08-17T00:13:57.914Z,99714.28
2022-08-17T00:16:55.836Z,99718.75
2022-08-17T00:19:23.536Z,99704.69
2022-08-17T00:22:32.892Z,99709.66
2022-08-17T00:24:40.832Z,99709.66
2022-08-17T00:27:08.223Z,99710.00
2022-08-17T00:29:35.276Z,99716.59
2022-08-17T00:33:13.763Z,99709.56
2022-08-17T00:34:50.678Z,99704.75
2022-08-17T00:37:17.640Z,99710.50
2022-08-17T00:39:44.648Z,99698.41
2022-08-17T00:42:16.333Z,99700.06
2022-08-17T00:44:43.382Z,99710.25
2022-08-17T00:47:10.299Z,99706.78
2022-08-17T00:49:37.291Z,99710.25
2022-08-17T00:52:15.570Z,99719.13
2022-08-17T00:54:47.949Z,99709.81
2022-08-17T00:57:30.139Z,99713.72
2022-08-17T01:00:05.994Z,99712.97
2022-08-17T01:02:43.816Z,99720.22
2022-08-17T01:05:25.871Z,99720.66
2022-08-17T01:07:53.936Z,99721.22
2022-08-17T01:10:58.301Z,99722.69
2022-08-17T01:13:13.805Z,99720.22
2022-08-17T01:15:47.969Z,99724.16
2022-08-17T01:18:16.729Z,99736.03
2022-08-17T01:20:53.789Z,99726.81
2022-08-17T01:23:23.675Z,99719.81
2022-08-17T01:25:55.051Z,99729.00
2022-08-17T01:28:52.618Z,99729.34
2022-08-17T01:31:12.698Z,99732.72
2022-08-17T01:33:39.699Z,99736.13
2022-08-17T01:36:07.855Z,99725.41
2022-08-17T01:38:36.652Z,99728.25
2022-08-17T01:41:09.623Z,99732.84
2022-08-17T01:43:59.313Z,99735.13
2022-08-17T01:46:30.208Z,99736.03
2022-08-17T01:48:57.699Z,99738.06
2022-08-17T01:51:27.795Z,99738.59
2022-08-17T01:53:58.703Z,99737.50
2022-08-17T01:56:28.023Z,99741.91
2022-08-17T01:58:55.697Z,99741.88
2022-08-17T02:01:27.712Z,99745.81
2022-08-17T02:04:00.652Z,99746.38
2022-08-17T02:06:52.422Z,99743.69
2022-08-17T02:09:23.348Z,99741.00
2022-08-17T02:11:52.978Z,99745.94
2022-08-17T02:14:21.194Z,99742.06
2022-08-17T02:16:48.191Z,99752.47
2022-08-17T02:19:16.629Z,99752.72
2022-08-17T02:21:46.577Z,99750.38
2022-08-17T02:24:58.446Z,99744.00
2022-08-17T02:27:06.989Z,99743.50
2022-08-17T02:29:34.057Z,99747.88
2022-08-17T02:32:01.984Z,99748.72
2022-08-17T02:34:30.227Z,99748.50
2022-08-17T02:36:57.267Z,99741.69
2022-08-17T02:39:24.358Z,99741.09
2022-08-17T02:42:01.212Z,99730.81
2022-08-17T02:44:38.817Z,99729.69
2022-08-17T02:47:09.321Z,99733.72
2022-08-17T02:49:37.343Z,99726.97
2022-08-17T02:52:06.351Z,99735.22
2022-08-17T02:54:40.445Z,99731.69
2022-08-17T02:57:10.365Z,99724.81
2022-08-17T02:59:44.268Z,99724.63
2022-08-17T03:02:15.509Z,99721.41
2022-08-17T03:04:42.469Z,99715.94
2022-08-17T03:07:09.452Z,99718.72
2022-08-17T03:09:36.348Z,99719.78
2022-08-17T03:12:14.097Z,99721.44
2022-08-17T03:14:42.721Z,99726.91
2022-08-17T03:17:17.027Z,99720.69
2022-08-17T03:19:45.055Z,99728.56
2022-08-17T03:22:35.962Z,99726.91
2022-08-17T03:24:58.994Z,99728.06
2022-08-17T03:27:26.401Z,99720.75
2022-08-17T03:29:53.494Z,99719.88
2022-08-17T03:32:20.924Z,99723.91
2022-08-17T03:34:48.111Z,99720.06
2022-08-17T03:37:15.275Z,99724.44
2022-08-17T03:39:43.056Z,99721.22
2022-08-17T03:42:32.564Z,99716.28
2022-08-17T03:45:01.145Z,99719.34
2022-08-17T03:47:47.051Z,99722.44
2022-08-17T03:50:38.384Z,99722.13
2022-08-17T03:53:34.530Z,99724.72
2022-08-17T03:56:21.826Z,99719.88
2022-08-17T03:58:49.562Z,99721.00
2022-08-17T04:01:18.122Z,99719.91
2022-08-17T04:03:45.282Z,99716.69
2022-08-17T04:06:12.336Z,99730.66
2022-08-17T04:08:39.299Z,99715.06
2022-08-17T04:11:06.298Z,99717.19
2022-08-17T04:13:33.269Z,99718.25
2022-08-17T04:16:00.237Z,99718.53
2022-08-17T04:18:27.292Z,99721.72
2022-08-17T04:20:54.340Z,99727.44
2022-08-17T04:23:21.347Z,99726.91
2022-08-17T04:25:50.749Z,99737.91
2022-08-17T04:28:19.359Z,99733.41
2022-08-17T04:30:47.645Z,99735.97
2022-08-17T04:33:24.783Z,99734.00
2022-08-17T04:35:54.519Z,99746.50
2022-08-17T04:38:30.374Z,99741.69
2022-08-17T04:41:17.429Z,99741.63
2022-08-17T04:43:46.307Z,99738.34
2022-08-17T04:46:18.490Z,99743.63
2022-08-17T04:48:48.438Z,99739.56
2022-08-17T04:51:37.862Z,99738.19
2022-08-17T04:54:07.602Z,99739.59
2022-08-17T04:56:35.956Z,99732.41
2022-08-17T04:59:13.794Z,99738.38
2022-08-17T05:01:43.906Z,99735.75
2022-08-17T05:04:21.069Z,99737.47
2022-08-17T05:07:00.670Z,99747.59
2022-08-17T05:09:27.755Z,99755.44
2022-08-17T05:11:55.311Z,99750.66
2022-08-17T05:14:32.364Z,99751.75
2022-08-17T05:17:01.680Z,99750.97
2022-08-17T05:19:29.011Z,99756.75
2022-08-17T05:21:55.955Z,99761.59
2022-08-17T05:24:39.837Z,99768.28
2022-08-17T05:27:09.891Z,99762.41
2022-08-17T05:29:41.392Z,99761.78
2022-08-17T05:32:47.896Z,99770.09
2022-08-17T05:35:00.755Z,99769.25
2022-08-17T05:37:27.938Z,99762.22
2022-08-17T05:39:55.025Z,99764.16
2022-08-17T05:42:22.383Z,99772.47
2022-08-17T05:44:49.347Z,99766.38
2022-08-17T05:47:16.808Z,99776.19
2022-08-17T05:49:44.007Z,99772.66
2022-08-17T05:52:20.057Z,99774.69
2022-08-17T05:55:21.428Z,99775.22
2022-08-17T05:58:26.443Z,99765.72
2022-08-17T06:01:15.146Z,99772.56
2022-08-17T06:03:55.408Z,99777.03
2022-08-17T06:06:36.851Z,99773.88
2022-08-17T06:09:30.163Z,99779.44
2022-08-17T06:12:18.979Z,99772.25
2022-08-17T06:15:02.118Z,99778.19
2022-08-17T06:17:29.936Z,99779.03
2022-08-17T06:20:03.132Z,99778.06
2022-08-17T06:22:34.694Z,99780.69
2022-08-17T06:25:10.163Z,99784.59
2022-08-17T06:27:43.303Z,99775.25
2022-08-17T06:30:20.932Z,99778.47
2022-08-17T06:32:50.409Z,99770.91
2022-08-17T06:35:31.988Z,99772.44
2022-08-17T06:38:00.600Z,99779.59
2022-08-17T06:41:05.104Z,99772.41
2022-08-17T06:43:56.927Z,99769.34
2022-08-17T06:46:25.981Z,99783.09
2022-08-17T06:49:26.833Z,99766.91
2022-08-17T06:52:45.991Z,99780.19
2022-08-17T06:55:18.022Z,99785.28
2022-08-17T06:57:51.641Z,99788.66
2022-08-17T07:00:33.772Z,99777.44
2022-08-17T07:03:21.045Z,99783.94
2022-08-17T07:06:19.216Z,99782.59
2022-08-17T07:09:03.144Z,99784.22
2022-08-17T07:11:39.206Z,99787.13
2022-08-17T07:14:30.390Z,99790.81
2022-08-17T07:17:02.146Z,99785.13
2022-08-17T07:19:32.875Z,99782.06
2022-08-17T07:22:28.190Z,99789.16
2022-08-17T07:24:58.521Z,99790.84
2022-08-17T07:27:36.045Z,99792.56
2022-08-17T07:30:16.563Z,99790.59
2022-08-17T07:32:51.278Z,99787.22
2022-08-17T07:35:22.183Z,99791.34
2022-08-17T07:37:55.792Z,99784.63
2022-08-17T07:40:29.887Z,99780.56
2022-08-17T07:43:23.496Z,99790.13
2022-08-17T07:46:18.487Z,99796.75
2022-08-17T07:48:49.958Z,99797.38
2022-08-17T07:51:30.119Z,99798.78
2022-08-17T07:54:13.610Z,99792.56
2022-08-17T07:56:45.903Z,99784.28
2022-08-17T07:59:27.174Z,99790.88
2022-08-17T08:02:02.429Z,99790.56
2022-08-17T08:04:59.117Z,99788.66
2022-08-17T08:07:30.524Z,99794.34
2022-08-17T08:10:15.335Z,99786.59
2022-08-17T08:12:53.648Z,99786.91
2022-08-17T08:15:33.332Z,99788.59
2022-08-17T08:18:03.939Z,99784.09
2022-08-17T08:21:03.934Z,99795.72
2022-08-17T08:23:37.188Z,99782.91
2022-08-17T08:26:18.766Z,99797.22
2022-08-17T08:28:58.274Z,99798.78
2022-08-17T08:31:47.487Z,99794.41
2022-08-17T08:35:00.800Z,99793.44
2022-08-17T08:37:35.746Z,99778.81
2022-08-17T08:40:16.783Z,99779.59
2022-08-17T08:43:06.911Z,99793.09
2022-08-17T08:46:07.887Z,99781.25
2022-08-17T08:48:58.747Z,99771.69
2022-08-17T08:51:57.491Z,99769.16
2022-08-17T08:54:57.006Z,99775.97
2022-08-17T08:57:34.570Z,99776.78
2022-08-17T09:00:23.184Z,99783.38
2022-08-17T09:03:08.539Z,99781.97
2022-08-17T09:06:33.615Z,99784.75
2022-08-17T09:09:22.456Z,99782.41
2022-08-17T09:12:08.642Z,99776.41
2022-08-17T09:14:45.114Z,99767.53
2022-08-17T09:17:18.418Z,99768.25
2022-08-17T09:19:58.126Z,99773.28
2022-08-17T09:22:34.333Z,99771.38
2022-08-17T09:25:27.118Z,99768.69
2022-08-17T09:28:00.584Z,99767.69
2022-08-17T09:30:40.864Z,99769.69
2022-08-17T09:33:10.170Z,99764.56
2022-08-17T09:35:51.244Z,99762.25
2022-08-17T09:38:31.754Z,99762.25
2022-08-17T09:41:06.597Z,99756.28
2022-08-17T09:43:41.436Z,99744.59
2022-08-17T09:46:16.088Z,99754.38
2022-08-17T09:49:25.127Z,99756.16
2022-08-17T09:51:58.925Z,99754.66
2022-08-17T09:54:45.599Z,99759.78
2022-08-17T09:58:00.476Z,99759.28
2022-08-17T10:00:35.791Z,99764.28
2022-08-17T10:03:21.547Z,99754.94
2022-08-17T10:05:57.402Z,99755.19
2022-08-17T10:08:47.307Z,99749.75
2022-08-17T10:11:55.673Z,99751.97
2022-08-17T10:14:46.936Z,99749.22
2022-08-17T10:17:26.947Z,99748.56
2022-08-17T10:20:07.104Z,99741.06
2022-08-17T10:23:10.523Z,99740.94
2022-08-17T10:26:04.363Z,99732.22
2022-08-17T10:28:55.023Z,99731.94
2022-08-17T10:31:42.739Z,99738.34
2022-08-17T10:34:24.566Z,99741.34
2022-08-17T10:37:06.939Z,99743.84
2022-08-17T10:39:51.822Z,99749.06
2022-08-17T10:42:33.027Z,99737.22
2022-08-17T10:45:15.155Z,99729.47
2022-08-17T10:48:14.412Z,99716.47
2022-08-17T10:50:57.728Z,99723.94
2022-08-17T10:53:33.841Z,99721.75
2022-08-17T10:56:22.605Z,99722.41
2022-08-17T10:58:54.299Z,99718.31
2022-08-17T11:01:47.543Z,99715.75
2022-08-17T11:04:29.835Z,99708.97
2022-08-17T11:07:37.397Z,99711.69
2022-08-17T11:10:42.390Z,99703.56
2022-08-17T11:13:38.719Z,99697.81
2022-08-17T11:16:48.162Z,99701.34
2022-08-17T11:19:47.369Z,99706.63
2022-08-17T11:22:39.283Z,99709.13
2022-08-17T11:25:22.873Z,99705.16
2022-08-17T11:28:04.514Z,99694.56
2022-08-17T11:31:38.000Z,99697.97
2022-08-17T11:34:27.318Z,99682.41
2022-08-17T11:37:01.865Z,99683.66
2022-08-17T11:39:51.232Z,99677.88
2022-08-17T11:42:39.023Z,99674.09
2022-08-17T11:45:33.284Z,99668.47
2022-08-17T11:49:00.122Z,99666.50
2022-08-17T11:51:55.408Z,99655.31
2022-08-17T11:54:45.378Z,99643.72
2022-08-17T11:57:27.752Z,99638.03
2022-08-17T11:59:58.415Z,99654.94
2022-08-17T12:02:31.681Z,99640.81
2022-08-17T12:05:12.451Z,99628.75
2022-08-17T12:07:42.640Z,99636.44
2022-08-17T12:10:12.518Z,99641.56
2022-08-17T12:12:44.253Z,99646.38
2022-08-17T12:15:17.573Z,99644.81
2022-08-17T12:17:56.053Z,99648.72
2022-08-17T12:20:53.262Z,99638.09
2022-08-17T12:23:44.149Z,99640.94
2022-08-17T12:26:19.623Z,99647.47
2022-08-17T12:28:56.084Z,99633.66
2022-08-17T12:31:34.784Z,99637.97
2022-08-17T12:34:04.628Z,99626.81
2022-08-17T12:36:33.910Z,99635.06
2022-08-17T12:39:14.583Z,99624.31
2022-08-17T12:41:50.361Z,99629.88
2022-08-17T12:44:23.565Z,99640.16
2022-08-17T12:47:10.839Z,99638.50
2022-08-17T12:49:42.332Z,99630.94
2022-08-17T12:52:28.804Z,99621.63
2022-08-17T12:55:00.729Z,99628.13
2022-08-17T12:57:35.259Z,99617.25
2022-08-17T13:00:17.801Z,99624.25
2022-08-17T13:03:07.870Z,99616.22
2022-08-17T13:05:41.255Z,99609.50
2022-08-17T13:08:17.829Z,99614.94
2022-08-17T13:11:01.602Z,99610.56
2022-08-17T13:13:33.901Z,99603.72
2022-08-17T13:16:17.237Z,99598.53
2022-08-17T13:18:48.884Z,99607.81
2022-08-17T13:21:19.123Z,99605.34
2022-08-17T13:24:11.967Z,99596.41
2022-08-17T13:26:44.821Z,99608.34
2022-08-17T13:29:23.499Z,99599.69
2022-08-17T13:32:04.871Z,99598.28
2022-08-17T13:34:38.122Z,99601.53
2022-08-17T13:37:30.004Z,99590.41
2022-08-17T13:40:19.700Z,99591.25
2022-08-17T13:42:51.648Z,99581.78
2022-08-17T13:45:39.802Z,99584.53
2022-08-17T13:48:12.356Z,99579.47
2022-08-17T13:50:56.614Z,99576.28
2022-08-17T13:53:31.361Z,99583.13
2022-08-17T13:56:33.459Z,99578.69
2022-08-17T13:59:00.274Z,99579.44
2022-08-17T14:01:53.389Z,99584.31
2022-08-17T14:04:28.084Z,99579.13
2022-08-17T14:07:01.450Z,99592.13
2022-08-17T14:09:43.556Z,99581.63
2022-08-17T14:12:16.374Z,99575.06
2022-08-17T14:14:44.819Z,99575.78
2022-08-17T14:17:12.311Z,99574.03
2022-08-17T14:19:39.831Z,99567.19
2022-08-17T14:22:17.195Z,99568.44
2022-08-17T14:24:45.113Z,99566.25
2022-08-17T14:27:12.632Z,99570.28
2022-08-17T14:29:41.389Z,99573.59
2022-08-17T14:32:33.847Z,99568.47
2022-08-17T14:35:01.782Z,99558.81
2022-08-17T14:37:29.572Z,99558.72
2022-08-17T14:39:58.994Z,99555.19
2022-08-17T14:42:29.237Z,99572.78
2022-08-17T14:44:58.826Z,99572.31
2022-08-17T14:47:26.807Z,99569.56
2022-08-17T14:49:53.993Z,99573.19
2022-08-17T14:52:21.939Z,99566.28
2022-08-17T14:54:51.483Z,99572.31
2022-08-17T14:57:26.197Z,99561.53
2022-08-17T15:00:01.272Z,99561.97
2022-08-17T15:02:30.836Z,99561.59
2022-08-17T15:05:02.567Z,99568.38
2022-08-17T15:07:30.404Z,99558.75
2022-08-17T15:10:02.366Z,99559.91
2022-08-17T15:12:34.604Z,99556.16
2022-08-17T15:15:06.461Z,99558.13
2022-08-17T15:17:45.125Z,99561.84
2022-08-17T15:20:17.834Z,99562.66
2022-08-17T15:22:46.297Z,99555.53
2022-08-17T15:25:14.114Z,99548.78
2022-08-17T15:27:41.871Z,99558.81
2022-08-17T15:30:10.664Z,99559.28
2022-08-17T15:32:41.312Z,99555.25
2022-08-17T15:35:19.817Z,99550.06
2022-08-17T15:37:55.125Z,99558.28
2022-08-17T15:40:22.180Z,99562.47
2022-08-17T15:42:49.254Z,99563.69
2022-08-17T15:45:21.457Z,99563.50
2022-08-17T15:47:48.450Z,99569.59
2022-08-17T15:50:15.408Z,99562.19
2022-08-17T15:52:55.678Z,99565.09
2022-08-17T15:55:24.239Z,99562.16
2022-08-17T15:57:52.435Z,99557.53
2022-08-17T16:00:20.180Z,99558.88
2022-08-17T16:03:14.863Z,99549.41
2022-08-17T16:05:35.896Z,99553.84
2022-08-17T16:08:04.453Z,99551.25
2022-08-17T16:10:35.756Z,99557.41
2022-08-17T16:13:04.657Z,99551.50
2022-08-17T16:15:32.214Z,99552.72
2022-08-17T16:17:59.508Z,99542.94
2022-08-17T16:20:26.741Z,99553.91
2022-08-17T16:22:54.961Z,99551.00
2022-08-17T16:25:38.389Z,99551.78
2022-08-17T16:28:17.582Z,99549.47
2022-08-17T16:30:45.658Z,99547.56
2022-08-17T16:33:12.872Z,99546.97
2022-08-17T16:35:42.053Z,99549.25
2022-08-17T16:38:09.730Z,99541.22
2022-08-17T16:40:36.758Z,99544.25
2022-08-17T16:43:10.710Z,99543.56
2022-08-17T16:45:40.834Z,99542.41
2022-08-17T16:48:09.548Z,99546.59
2022-08-17T16:50:37.111Z,99537.56
2022-08-17T16:53:06.855Z,99541.38
2022-08-17T16:55:37.797Z,99544.06
2022-08-17T16:58:06.630Z,99545.78
2022-08-17T17:00:34.164Z,99551.09
2022-08-17T17:03:19.385Z,99548.53
2022-08-17T17:05:58.006Z,99553.31
2022-08-17T17:08:30.527Z,99560.50
2022-08-17T17:11:03.917Z,99552.94
2022-08-17T17:13:54.299Z,99553.28
2022-08-17T17:16:26.708Z,99549.72
2022-08-17T17:19:12.064Z,99550.50
2022-08-17T17:22:20.745Z,99554.88
2022-08-17T17:24:50.622Z,99555.28
2022-08-17T17:27:31.961Z,99565.72
2022-08-17T17:30:16.817Z,99560.91
2022-08-17T17:32:54.474Z,99566.41
2022-08-17T17:35:27.643Z,99570.94
2022-08-17T17:37:57.503Z,99567.81
2022-08-17T17:40:48.114Z,99565.91
2022-08-17T17:43:38.221Z,99574.91
2022-08-17T17:46:27.700Z,99570.44
2022-08-17T17:48:57.286Z,99572.16
2022-08-17T17:52:09.111Z,99565.75
2022-08-17T17:54:32.549Z,99556.94
2022-08-17T17:57:17.845Z,99550.34
2022-08-17T17:59:47.735Z,99555.28
2022-08-17T18:02:52.172Z,99566.38
2022-08-17T18:05:40.740Z,99564.66
2022-08-17T18:08:32.381Z,99564.94
2022-08-17T18:11:24.039Z,99559.16
2022-08-17T18:14:00.766Z,99562.81
2022-08-17T18:16:29.768Z,99565.00
2022-08-17T18:18:59.634Z,99568.72
2022-08-17T18:21:37.971Z,99576.00
2022-08-17T18:24:10.669Z,99568.31
2022-08-17T18:26:44.987Z,99564.94
2022-08-17T18:29:35.917Z,99569.78
2022-08-17T18:32:23.069Z,99564.81
2022-08-17T18:35:07.390Z,99568.91
2022-08-17T18:37:56.718Z,99561.28
2022-08-17T18:40:28.465Z,99572.81
2022-08-17T18:43:03.435Z,99579.63
2022-08-17T18:45:52.133Z,99582.19
2022-08-17T18:48:50.074Z,99580.06
2022-08-17T18:51:40.511Z,99584.19
2022-08-17T18:54:15.615Z,99580.63
2022-08-17T18:56:57.928Z,99587.56
2022-08-17T18:59:28.891Z,99585.63
2022-08-17T19:02:33.668Z,99586.06
2022-08-17T19:05:28.281Z,99587.22
2022-08-17T19:08:22.996Z,99588.94
2022-08-17T19:11:03.443Z,99605.50
2022-08-17T19:13:42.316Z,99606.97
2022-08-17T19:16:32.476Z,99610.78
2022-08-17T19:19:14.537Z,99620.81
2022-08-17T19:22:29.219Z,99615.91
2022-08-17T19:25:11.202Z,99610.56
2022-08-17T19:27:57.832Z,99611.97
2022-08-17T19:30:26.024Z,99610.47
2022-08-17T19:32:53.242Z,99611.97
2022-08-17T19:35:24.945Z,99620.97
2022-08-17T19:37:59.684Z,99610.25
2022-08-17T19:40:56.440Z,99623.03
2022-08-17T19:43:30.813Z,99633.63
2022-08-17T19:46:11.622Z,99643.09
2022-08-17T19:49:10.088Z,99653.53
2022-08-17T19:52:00.285Z,99657.38
2022-08-17T19:54:31.137Z,99660.22
2022-08-17T19:57:08.483Z,99669.50
2022-08-17T19:59:49.111Z,99684.88
2022-08-17T20:02:18.897Z,99687.38
2022-08-17T20:04:49.325Z,99695.81
2022-08-17T20:07:26.364Z,99706.59
2022-08-17T20:10:02.109Z,99714.81
2022-08-17T20:12:51.949Z,99714.81
2022-08-17T20:15:31.002Z,99707.88
2022-08-17T20:18:00.448Z,99712.53
2022-08-17T20:20:49.587Z,99714.56
2022-08-17T20:23:56.594Z,99717.88
2022-08-17T20:26:27.429Z,99711.81
2022-08-17T20:29:37.510Z,99718.94
2022-08-17T20:32:15.410Z,99719.38
2022-08-17T20:34:46.600Z,99719.75
2022-08-17T20:37:13.603Z,99717.72
2022-08-17T20:40:09.121Z,99720.47
2022-08-17T20:42:36.884Z,99725.88
2022-08-17T20:45:26.446Z,99724.03
2022-08-17T20:48:33.348Z,99719.66
2022-08-17T20:50:56.155Z,99723.53
2022-08-17T20:53:47.631Z,99742.47
2022-08-17T20:56:45.418Z,99744.84
2022-08-17T20:59:25.618Z,99746.81
2022-08-17T21:02:17.690Z,99747.97
2022-08-17T21:04:52.935Z,99738.38
2022-08-17T21:07:51.979Z,99749.75
2022-08-17T21:10:21.501Z,99756.22
2022-08-17T21:12:59.433Z,99756.72
2022-08-17T21:15:48.723Z,99758.06
2022-08-17T21:18:46.672Z,99753.50
2022-08-17T21:21:49.171Z,99754.16
2022-08-17T21:24:57.843Z,99758.22
2022-08-17T21:28:23.256Z,99778.03
2022-08-17T21:31:09.167Z,99767.84
2022-08-17T21:33:39.169Z,99774.47
2022-08-17T21:36:12.130Z,99769.66
2022-08-17T21:38:48.120Z,99771.94
2022-08-17T21:41:33.956Z,99774.88
2022-08-17T21:44:21.857Z,99779.09
2022-08-17T21:46:51.422Z,99771.63
2022-08-17T21:49:25.618Z,99772.78
2022-08-17T21:51:56.742Z,99754.81
2022-08-17T21:54:42.676Z,99756.38
2022-08-17T21:57:17.655Z,99748.75
2022-08-17T21:59:45.038Z,99747.13
2022-08-17T22:02:25.263Z,99750.19
2022-08-17T22:05:00.136Z,99744.94
2022-08-17T22:08:02.495Z,99739.72
2022-08-17T22:10:40.381Z,99742.44
2022-08-17T22:13:17.115Z,99735.31
2022-08-17T22:16:28.134Z,99716.00
2022-08-17T22:18:58.246Z,99705.47
2022-08-17T22:21:25.777Z,99709.22
2022-08-17T22:24:06.715Z,99712.53
2022-08-17T22:27:01.396Z,99724.38
2022-08-17T22:29:57.064Z,99726.69
2022-08-17T22:32:45.269Z,99720.66
2022-08-17T22:35:30.375Z,99716.72
2022-08-17T22:38:17.797Z,99713.97
2022-08-17T22:40:53.980Z,99715.22
2022-08-17T22:43:28.720Z,99715.72
2022-08-17T22:46:00.026Z,99703.00
2022-08-17T22:48:29.826Z,99693.59
2022-08-17T22:51:25.805Z,99702.94
2022-08-17T22:54:14.756Z,99695.16
2022-08-17T22:57:18.734Z,99701.88
2022-08-17T22:59:50.217Z,99701.28
2022-08-17T23:02:21.897Z,99707.63
2022-08-17T23:05:13.141Z,99709.16
2022-08-17T23:07:42.401Z,99717.50
2022-08-17T23:10:11.651Z,99730.66
2022-08-17T23:12:39.838Z,99730.66
2022-08-17T23:15:16.431Z,99732.41
2022-08-17T23:17:44.440Z,99717.94
2022-08-17T23:20:15.219Z,99723.69
2022-08-17T23:22:52.461Z,99717.59
2022-08-17T23:25:28.206Z,99724.81
2022-08-17T23:27:57.742Z,99716.53
2022-08-17T23:30:25.720Z,99734.03
2022-08-17T23:32:54.529Z,99739.94
2022-08-17T23:35:39.806Z,99730.44
2022-08-17T23:38:11.775Z,99724.38
2022-08-17T23:40:39.921Z,99729.34
2022-08-17T23:43:17.434Z,99734.13
2022-08-17T23:45:50.817Z,99730.25
2022-08-17T23:48:28.490Z,99731.50
2022-08-17T23:51:14.594Z,99712.03
2022-08-17T23:53:47.445Z,99720.53
2022-08-17T23:56:15.188Z,99725.63
2022-08-17T23:58:43.591Z,99724.19
